sensor_id;sensor_type;location;lat;lon;timestamp;temperature;humidity
35970;DHT22;22448;51.298;6.430;2022-09-09T00:01:34;14.30;99.90
35970;DHT22;22448;51.298;6.430;2022-09-09T00:04:25;14.30;99.90
35970;DHT22;22448;51.298;6.430;2022-09-09T00:09:28;14.30;99.90
35970;DHT22;22448;51.298;6.430;2022-09-09T00:12:04;14.30;99.90
35970;DHT22;22448;51.298;6.430;2022-09-09T00:20:39;14.40;99.90
35970;DHT22;22448;51.298;6.430;2022-09-09T00:23:17;14.30;99.90
35970;DHT22;22448;51.298;6.430;2022-09-09T00:28:22;14.10;99.90
35970;DHT22;22448;51.298;6.430;2022-09-09T00:30:49;14.10;99.90
35970;DHT22;22448;51.298;6.430;2022-09-09T00:33:20;14.00;99.90
35970;DHT22;22448;51.298;6.430;2022-09-09T00:35:52;13.90;99.90
35970;DHT22;22448;51.298;6.430;2022-09-09T00:38:25;13.90;99.90
35970;DHT22;22448;51.298;6.430;2022-09-09T00:41:01;13.90;99.90
35970;DHT22;22448;51.298;6.430;2022-09-09T00:43:31;13.90;99.90
35970;DHT22;22448;51.298;6.430;2022-09-09T00:46:17;13.90;99.90
35970;DHT22;22448;51.298;6.430;2022-09-09T00:54:25;13.80;99.90
35970;DHT22;22448;51.298;6.430;2022-09-09T01:00:16;13.70;99.90
35970;DHT22;22448;51.298;6.430;2022-09-09T01:08:12;13.70;99.90
35970;DHT22;22448;51.298;6.430;2022-09-09T01:10:49;13.70;99.90
35970;DHT22;22448;51.298;6.430;2022-09-09T01:13:24;13.80;99.90
35970;DHT22;22448;51.298;6.430;2022-09-09T01:15:53;13.90;99.90
35970;DHT22;22448;51.298;6.430;2022-09-09T01:18:33;13.90;99.90
35970;DHT22;22448;51.298;6.430;2022-09-09T01:21:22;14.00;99.90
35970;DHT22;22448;51.298;6.430;2022-09-09T01:26:32;14.10;99.90
35970;DHT22;22448;51.298;6.430;2022-09-09T01:29:08;14.10;99.90
35970;DHT22;22448;51.298;6.430;2022-09-09T01:31:55;14.00;99.90
35970;DHT22;22448;51.298;6.430;2022-09-09T01:34:25;14.00;99.90
35970;DHT22;22448;51.298;6.430;2022-09-09T01:37:05;14.00;99.90
35970;DHT22;22448;51.298;6.430;2022-09-09T01:39:35;13.90;99.90
35970;DHT22;22448;51.298;6.430;2022-09-09T01:42:09;13.90;99.90
35970;DHT22;22448;51.298;6.430;2022-09-09T01:44:38;13.90;99.90
35970;DHT22;22448;51.298;6.430;2022-09-09T01:47:05;13.90;99.90
35970;DHT22;22448;51.298;6.430;2022-09-09T01:49:35;13.90;99.90
35970;DHT22;22448;51.298;6.430;2022-09-09T01:52:09;13.90;99.90
35970;DHT22;22448;51.298;6.430;2022-09-09T01:54:38;13.90;99.90
35970;DHT22;22448;51.298;6.430;2022-09-09T01:57:24;13.90;99.90
35970;DHT22;22448;51.298;6.430;2022-09-09T02:02:59;13.90;99.90
35970;DHT22;22448;51.298;6.430;2022-09-09T02:05:38;13.90;99.90
35970;DHT22;22448;51.298;6.430;2022-09-09T02:08:19;14.00;99.90
35970;DHT22;22448;51.298;6.430;2022-09-09T02:11:01;14.00;99.90
35970;DHT22;22448;51.298;6.430;2022-09-09T02:13:38;14.00;99.90
35970;DHT22;22448;51.298;6.430;2022-09-09T02:16:18;14.00;99.90
35970;DHT22;22448;51.298;6.430;2022-09-09T02:19:06;14.00;99.90
35970;DHT22;22448;51.298;6.430;2022-09-09T02:21:46;13.90;99.90
35970;DHT22;22448;51.298;6.430;2022-09-09T02:24:15;13.90;99.90
35970;DHT22;22448;51.298;6.430;2022-09-09T02:26:51;13.90;99.90
35970;DHT22;22448;51.298;6.430;2022-09-09T02:29:31;13.90;99.90
35970;DHT22;22448;51.298;6.430;2022-09-09T02:32:04;13.90;99.90
35970;DHT22;22448;51.298;6.430;2022-09-09T02:34:39;13.90;99.90
35970;DHT22;22448;51.298;6.430;2022-09-09T02:37:08;13.90;99.90
35970;DHT22;22448;51.298;6.430;2022-09-09T02:39:37;14.00;99.90
35970;DHT22;22448;51.298;6.430;2022-09-09T02:42:06;14.00;99.90
35970;DHT22;22448;51.298;6.430;2022-09-09T02:44:35;14.00;99.90
35970;DHT22;22448;51.298;6.430;2022-09-09T02:47:36;14.00;99.90
35970;DHT22;22448;51.298;6.430;2022-09-09T02:50:21;14.00;99.90
35970;DHT22;22448;51.298;6.430;2022-09-09T02:55:28;14.00;99.90
35970;DHT22;22448;51.298;6.430;2022-09-09T02:57:59;14.10;99.90
35970;DHT22;22448;51.298;6.430;2022-09-09T03:00:28;14.10;99.90
35970;DHT22;22448;51.298;6.430;2022-09-09T03:03:00;14.10;99.90
35970;DHT22;22448;51.298;6.430;2022-09-09T03:05:27;14.10;99.90
35970;DHT22;22448;51.298;6.430;2022-09-09T03:07:55;14.10;99.90
35970;DHT22;22448;51.298;6.430;2022-09-09T03:10:22;14.20;99.90
35970;DHT22;22448;51.298;6.430;2022-09-09T03:12:49;14.10;99.90
35970;DHT22;22448;51.298;6.430;2022-09-09T03:15:17;14.10;99.90
35970;DHT22;22448;51.298;6.430;2022-09-09T03:17:45;14.10;99.90
35970;DHT22;22448;51.298;6.430;2022-09-09T03:20:12;14.00;99.90
35970;DHT22;22448;51.298;6.430;2022-09-09T03:22:39;14.00;99.90
35970;DHT22;22448;51.298;6.430;2022-09-09T03:25:07;14.00;99.90
35970;DHT22;22448;51.298;6.430;2022-09-09T03:27:35;13.90;99.90
35970;DHT22;22448;51.298;6.430;2022-09-09T03:30:04;13.80;99.90
35970;DHT22;22448;51.298;6.430;2022-09-09T03:32:31;13.80;99.90
35970;DHT22;22448;51.298;6.430;2022-09-09T03:34:58;13.80;99.90
35970;DHT22;22448;51.298;6.430;2022-09-09T03:37:25;13.70;99.90
35970;DHT22;22448;51.298;6.430;2022-09-09T03:39:52;13.70;99.90
35970;DHT22;22448;51.298;6.430;2022-09-09T03:42:22;13.70;99.90
35970;DHT22;22448;51.298;6.430;2022-09-09T03:44:52;13.70;99.90
35970;DHT22;22448;51.298;6.430;2022-09-09T03:47:22;13.70;99.90
35970;DHT22;22448;51.298;6.430;2022-09-09T03:49:53;13.70;99.90
35970;DHT22;22448;51.298;6.430;2022-09-09T03:52:20;13.70;99.90
35970;DHT22;22448;51.298;6.430;2022-09-09T03:54:51;13.70;99.90
35970;DHT22;22448;51.298;6.430;2022-09-09T03:57:20;13.70;99.90
35970;DHT22;22448;51.298;6.430;2022-09-09T03:59:49;13.80;99.90
35970;DHT22;22448;51.298;6.430;2022-09-09T04:02:16;13.80;99.90
35970;DHT22;22448;51.298;6.430;2022-09-09T04:04:43;13.80;99.90
35970;DHT22;22448;51.298;6.430;2022-09-09T04:07:10;13.80;99.90
35970;DHT22;22448;51.298;6.430;2022-09-09T04:09:39;13.80;99.90
35970;DHT22;22448;51.298;6.430;2022-09-09T04:12:06;13.80;99.90
35970;DHT22;22448;51.298;6.430;2022-09-09T04:14:34;13.80;99.90
35970;DHT22;22448;51.298;6.430;2022-09-09T04:17:03;13.80;99.90
35970;DHT22;22448;51.298;6.430;2022-09-09T04:19:33;13.80;99.90
35970;DHT22;22448;51.298;6.430;2022-09-09T04:22:01;13.90;99.90
35970;DHT22;22448;51.298;6.430;2022-09-09T04:24:28;13.90;99.90
35970;DHT22;22448;51.298;6.430;2022-09-09T04:26:57;13.90;99.90
35970;DHT22;22448;51.298;6.430;2022-09-09T04:29:24;13.90;99.90
35970;DHT22;22448;51.298;6.430;2022-09-09T04:31:51;14.00;99.90
35970;DHT22;22448;51.298;6.430;2022-09-09T04:34:18;14.00;99.90
35970;DHT22;22448;51.298;6.430;2022-09-09T04:36:45;14.10;99.90
35970;DHT22;22448;51.298;6.430;2022-09-09T04:39:12;14.10;99.90
35970;DHT22;22448;51.298;6.430;2022-09-09T04:41:39;14.20;99.90
35970;DHT22;22448;51.298;6.430;2022-09-09T04:44:08;14.20;99.90
35970;DHT22;22448;51.298;6.430;2022-09-09T04:46:36;14.20;99.90
35970;DHT22;22448;51.298;6.430;2022-09-09T04:49:03;14.20;99.90
35970;DHT22;22448;51.298;6.430;2022-09-09T04:51:32;14.20;99.90
35970;DHT22;22448;51.298;6.430;2022-09-09T04:53:59;14.20;99.90
35970;DHT22;22448;51.298;6.430;2022-09-09T04:56:26;14.20;99.90
35970;DHT22;22448;51.298;6.430;2022-09-09T04:58:57;14.20;99.90
35970;DHT22;22448;51.298;6.430;2022-09-09T05:01:38;14.20;99.90
35970;DHT22;22448;51.298;6.430;2022-09-09T05:04:05;14.20;99.90
35970;DHT22;22448;51.298;6.430;2022-09-09T05:06:33;14.20;99.90
35970;DHT22;22448;51.298;6.430;2022-09-09T05:09:01;14.20;99.90
35970;DHT22;22448;51.298;6.430;2022-09-09T05:11:31;14.30;99.90
35970;DHT22;22448;51.298;6.430;2022-09-09T05:14:21;14.30;99.90
35970;DHT22;22448;51.298;6.430;2022-09-09T05:16:48;14.30;99.90
35970;DHT22;22448;51.298;6.430;2022-09-09T05:19:16;14.30;99.90
35970;DHT22;22448;51.298;6.430;2022-09-09T05:21:50;14.40;99.90
35970;DHT22;22448;51.298;6.430;2022-09-09T05:24:23;14.40;99.90
35970;DHT22;22448;51.298;6.430;2022-09-09T05:26:52;14.50;99.90
35970;DHT22;22448;51.298;6.430;2022-09-09T05:29:19;14.40;99.90
35970;DHT22;22448;51.298;6.430;2022-09-09T05:31:46;14.50;99.90
35970;DHT22;22448;51.298;6.430;2022-09-09T05:34:17;14.50;99.90
35970;DHT22;22448;51.298;6.430;2022-09-09T05:36:45;14.60;99.90
35970;DHT22;22448;51.298;6.430;2022-09-09T05:39:12;14.60;99.90
35970;DHT22;22448;51.298;6.430;2022-09-09T05:41:40;14.60;99.90
35970;DHT22;22448;51.298;6.430;2022-09-09T05:44:07;14.60;99.90
35970;DHT22;22448;51.298;6.430;2022-09-09T05:46:37;14.70;99.90
35970;DHT22;22448;51.298;6.430;2022-09-09T05:49:04;14.70;99.90
35970;DHT22;22448;51.298;6.430;2022-09-09T05:51:33;14.70;99.90
35970;DHT22;22448;51.298;6.430;2022-09-09T05:54:05;14.80;99.90
35970;DHT22;22448;51.298;6.430;2022-09-09T05:56:36;14.90;99.90
35970;DHT22;22448;51.298;6.430;2022-09-09T05:59:06;15.00;99.90
35970;DHT22;22448;51.298;6.430;2022-09-09T06:01:35;15.20;99.90
35970;DHT22;22448;51.298;6.430;2022-09-09T06:04:04;15.80;99.90
35970;DHT22;22448;51.298;6.430;2022-09-09T06:06:34;16.60;99.90
35970;DHT22;22448;51.298;6.430;2022-09-09T06:09:07;16.60;99.90
35970;DHT22;22448;51.298;6.430;2022-09-09T06:11:38;16.60;99.90
35970;DHT22;22448;51.298;6.430;2022-09-09T06:14:06;16.50;99.90
35970;DHT22;22448;51.298;6.430;2022-09-09T06:16:34;16.70;99.90
35970;DHT22;22448;51.298;6.430;2022-09-09T06:19:02;16.90;99.90
35970;DHT22;22448;51.298;6.430;2022-09-09T06:21:32;17.50;99.90
35970;DHT22;22448;51.298;6.430;2022-09-09T06:24:01;18.60;99.90
35970;DHT22;22448;51.298;6.430;2022-09-09T06:26:31;20.10;99.90
35970;DHT22;22448;51.298;6.430;2022-09-09T06:29:01;21.60;99.90
35970;DHT22;22448;51.298;6.430;2022-09-09T06:31:32;22.80;99.90
35970;DHT22;22448;51.298;6.430;2022-09-09T06:34:13;23.50;99.90
35970;DHT22;22448;51.298;6.430;2022-09-09T06:36:44;23.80;99.90
35970;DHT22;22448;51.298;6.430;2022-09-09T06:39:12;24.60;99.90
35970;DHT22;22448;51.298;6.430;2022-09-09T06:41:42;24.90;99.90
35970;DHT22;22448;51.298;6.430;2022-09-09T06:44:32;24.80;99.90
35970;DHT22;22448;51.298;6.430;2022-09-09T06:47:03;25.40;99.90
35970;DHT22;22448;51.298;6.430;2022-09-09T06:49:32;24.90;99.90
35970;DHT22;22448;51.298;6.430;2022-09-09T06:52:00;25.40;99.90
35970;DHT22;22448;51.298;6.430;2022-09-09T06:54:28;25.10;99.90
35970;DHT22;22448;51.298;6.430;2022-09-09T06:56:55;23.70;99.90
35970;DHT22;22448;51.298;6.430;2022-09-09T06:59:24;22.20;99.90
35970;DHT22;22448;51.298;6.430;2022-09-09T07:01:53;21.10;99.90
35970;DHT22;22448;51.298;6.430;2022-09-09T07:04:23;20.30;99.90
35970;DHT22;22448;51.298;6.430;2022-09-09T07:06:50;19.80;99.90
35970;DHT22;22448;51.298;6.430;2022-09-09T07:09:23;19.70;99.90
35970;DHT22;22448;51.298;6.430;2022-09-09T07:11:52;19.70;99.90
35970;DHT22;22448;51.298;6.430;2022-09-09T07:14:28;19.90;99.90
35970;DHT22;22448;51.298;6.430;2022-09-09T07:16:59;20.40;99.90
35970;DHT22;22448;51.298;6.430;2022-09-09T07:19:32;21.80;99.90
35970;DHT22;22448;51.298;6.430;2022-09-09T07:22:03;22.80;99.90
35970;DHT22;22448;51.298;6.430;2022-09-09T07:24:31;22.50;99.90
35970;DHT22;22448;51.298;6.430;2022-09-09T07:26:58;21.60;99.90
35970;DHT22;22448;51.298;6.430;2022-09-09T07:29:26;21.20;99.90
35970;DHT22;22448;51.298;6.430;2022-09-09T07:31:53;20.50;99.90
35970;DHT22;22448;51.298;6.430;2022-09-09T07:34:25;20.10;99.90
35970;DHT22;22448;51.298;6.430;2022-09-09T07:36:52;20.00;99.90
35970;DHT22;22448;51.298;6.430;2022-09-09T07:39:20;20.00;99.90
35970;DHT22;22448;51.298;6.430;2022-09-09T07:41:50;20.10;99.90
35970;DHT22;22448;51.298;6.430;2022-09-09T07:44:23;20.20;99.90
35970;DHT22;22448;51.298;6.430;2022-09-09T07:47:02;19.90;99.90
35970;DHT22;22448;51.298;6.430;2022-09-09T07:49:37;19.70;99.90
35970;DHT22;22448;51.298;6.430;2022-09-09T07:52:06;19.40;99.90
35970;DHT22;22448;51.298;6.430;2022-09-09T07:54:40;19.20;99.90
35970;DHT22;22448;51.298;6.430;2022-09-09T07:57:09;19.00;99.90
35970;DHT22;22448;51.298;6.430;2022-09-09T07:59:36;19.10;99.90
35970;DHT22;22448;51.298;6.430;2022-09-09T08:02:04;19.40;99.90
35970;DHT22;22448;51.298;6.430;2022-09-09T08:04:33;19.80;99.90
35970;DHT22;22448;51.298;6.430;2022-09-09T08:07:02;20.00;99.90
35970;DHT22;22448;51.298;6.430;2022-09-09T08:09:34;20.00;99.90
35970;DHT22;22448;51.298;6.430;2022-09-09T08:12:10;19.90;99.90
35970;DHT22;22448;51.298;6.430;2022-09-09T08:14:37;19.90;99.90
35970;DHT22;22448;51.298;6.430;2022-09-09T08:17:05;19.70;99.90
35970;DHT22;22448;51.298;6.430;2022-09-09T08:19:33;19.60;99.90
35970;DHT22;22448;51.298;6.430;2022-09-09T08:22:06;19.50;99.90
35970;DHT22;22448;51.298;6.430;2022-09-09T08:24:36;19.60;99.90
35970;DHT22;22448;51.298;6.430;2022-09-09T08:27:03;19.60;99.90
35970;DHT22;22448;51.298;6.430;2022-09-09T08:29:31;19.70;99.90
35970;DHT22;22448;51.298;6.430;2022-09-09T08:31:58;19.70;99.90
35970;DHT22;22448;51.298;6.430;2022-09-09T08:34:27;19.70;99.90
35970;DHT22;22448;51.298;6.430;2022-09-09T08:36:56;19.60;99.90
35970;DHT22;22448;51.298;6.430;2022-09-09T08:39:30;19.60;99.90
35970;DHT22;22448;51.298;6.430;2022-09-09T08:57:42;18.40;99.90
35970;DHT22;22448;51.298;6.430;2022-09-09T09:00:11;18.30;99.90
35970;DHT22;22448;51.298;6.430;2022-09-09T09:03:05;18.20;99.90
35970;DHT22;22448;51.298;6.430;2022-09-09T09:05:49;18.20;99.90
35970;DHT22;22448;51.298;6.430;2022-09-09T09:08:32;18.20;99.90
35970;DHT22;22448;51.298;6.430;2022-09-09T09:11:04;18.30;99.90
35970;DHT22;22448;51.298;6.430;2022-09-09T09:16:23;19.00;99.90
35970;DHT22;22448;51.298;6.430;2022-09-09T09:18:53;19.10;99.90
35970;DHT22;22448;51.298;6.430;2022-09-09T09:21:41;19.10;99.90
35970;DHT22;22448;51.298;6.430;2022-09-09T09:24:49;19.10;99.90
35970;DHT22;22448;51.298;6.430;2022-09-09T09:30:21;19.00;99.90
35970;DHT22;22448;51.298;6.430;2022-09-09T09:36:35;19.70;99.90
35970;DHT22;22448;51.298;6.430;2022-09-09T09:39:06;20.20;99.90
35970;DHT22;22448;51.298;6.430;2022-09-09T09:41:56;20.80;99.90
35970;DHT22;22448;51.298;6.430;2022-09-09T09:44:25;21.00;99.90
35970;DHT22;22448;51.298;6.430;2022-09-09T09:47:06;21.20;99.90
35970;DHT22;22448;51.298;6.430;2022-09-09T09:49:33;21.10;99.90
35970;DHT22;22448;51.298;6.430;2022-09-09T09:52:02;20.90;99.90
35970;DHT22;22448;51.298;6.430;2022-09-09T09:54:33;20.70;99.90
35970;DHT22;22448;51.298;6.430;2022-09-09T09:57:26;20.50;99.90
35970;DHT22;22448;51.298;6.430;2022-09-09T10:00:03;20.40;99.90
35970;DHT22;22448;51.298;6.430;2022-09-09T10:02:42;20.20;99.90
35970;DHT22;22448;51.298;6.430;2022-09-09T10:05:25;19.90;99.90
35970;DHT22;22448;51.298;6.430;2022-09-09T10:08:09;19.60;99.90
35970;DHT22;22448;51.298;6.430;2022-09-09T10:13:39;19.30;99.90
35970;DHT22;22448;51.298;6.430;2022-09-09T10:19:15;19.20;99.90
35970;DHT22;22448;51.298;6.430;2022-09-09T10:22:07;19.20;99.90
35970;DHT22;22448;51.298;6.430;2022-09-09T10:28:03;19.70;99.90
35970;DHT22;22448;51.298;6.430;2022-09-09T10:36:19;20.60;99.90
35970;DHT22;22448;51.298;6.430;2022-09-09T10:39:03;20.70;99.90
35970;DHT22;22448;51.298;6.430;2022-09-09T10:44:21;20.20;99.90
35970;DHT22;22448;51.298;6.430;2022-09-09T10:55:24;19.90;99.90
35970;DHT22;22448;51.298;6.430;2022-09-09T10:57:58;20.30;99.90
35970;DHT22;22448;51.298;6.430;2022-09-09T11:00:40;20.70;99.90
35970;DHT22;22448;51.298;6.430;2022-09-09T11:03:17;21.00;99.90
35970;DHT22;22448;51.298;6.430;2022-09-09T11:06:00;21.10;99.90
35970;DHT22;22448;51.298;6.430;2022-09-09T11:08:34;21.00;99.90
35970;DHT22;22448;51.298;6.430;2022-09-09T11:16:45;20.90;99.90
35970;DHT22;22448;51.298;6.430;2022-09-09T11:21:55;20.80;99.90
35970;DHT22;22448;51.298;6.430;2022-09-09T11:24:40;20.80;99.90
35970;DHT22;22448;51.298;6.430;2022-09-09T11:27:20;21.00;99.90
35970;DHT22;22448;51.298;6.430;2022-09-09T11:36:08;22.70;99.90
35970;DHT22;22448;51.298;6.430;2022-09-09T11:38:45;22.50;99.90
35970;DHT22;22448;51.298;6.430;2022-09-09T11:41:15;22.30;99.90
35970;DHT22;22448;51.298;6.430;2022-09-09T11:43:52;22.20;99.90
35970;DHT22;22448;51.298;6.430;2022-09-09T11:46:22;21.90;99.90
35970;DHT22;22448;51.298;6.430;2022-09-09T11:49:06;21.80;99.90
35970;DHT22;22448;51.298;6.430;2022-09-09T11:51:49;21.70;99.90
35970;DHT22;22448;51.298;6.430;2022-09-09T11:54:48;21.60;99.90
35970;DHT22;22448;51.298;6.430;2022-09-09T11:57:35;21.40;99.90
35970;DHT22;22448;51.298;6.430;2022-09-09T12:00:03;21.00;99.90
35970;DHT22;22448;51.298;6.430;2022-09-09T12:02:48;20.70;99.90
35970;DHT22;22448;51.298;6.430;2022-09-09T12:05:16;20.60;99.90
35970;DHT22;22448;51.298;6.430;2022-09-09T12:07:52;20.60;99.90
35970;DHT22;22448;51.298;6.430;2022-09-09T12:10:28;20.60;99.90
35970;DHT22;22448;51.298;6.430;2022-09-09T12:13:28;20.50;99.90
35970;DHT22;22448;51.298;6.430;2022-09-09T12:15:59;20.40;99.90
35970;DHT22;22448;51.298;6.430;2022-09-09T12:18:38;20.20;99.90
35970;DHT22;22448;51.298;6.430;2022-09-09T12:24:11;20.70;99.90
35970;DHT22;22448;51.298;6.430;2022-09-09T12:26:57;21.00;99.90
35970;DHT22;22448;51.298;6.430;2022-09-09T12:32:22;20.90;99.90
35970;DHT22;22448;51.298;6.430;2022-09-09T12:37:35;20.50;99.90
35970;DHT22;22448;51.298;6.430;2022-09-09T12:40:26;20.50;99.90
35970;DHT22;22448;51.298;6.430;2022-09-09T12:42:51;20.70;99.90
35970;DHT22;22448;51.298;6.430;2022-09-09T12:45:23;20.80;99.90
35970;DHT22;22448;51.298;6.430;2022-09-09T12:48:07;20.70;99.90
35970;DHT22;22448;51.298;6.430;2022-09-09T12:50:36;20.50;99.90
35970;DHT22;22448;51.298;6.430;2022-09-09T12:53:08;20.50;99.90
35970;DHT22;22448;51.298;6.430;2022-09-09T12:55:38;20.50;99.90
35970;DHT22;22448;51.298;6.430;2022-09-09T12:58:06;20.70;99.90
35970;DHT22;22448;51.298;6.430;2022-09-09T13:00:34;20.80;99.90
35970;DHT22;22448;51.298;6.430;2022-09-09T13:03:14;20.70;99.90
35970;DHT22;22448;51.298;6.430;2022-09-09T13:05:42;20.90;99.90
35970;DHT22;22448;51.298;6.430;2022-09-09T13:08:11;21.00;99.90
35970;DHT22;22448;51.298;6.430;2022-09-09T13:13:26;20.90;99.90
35970;DHT22;22448;51.298;6.430;2022-09-09T13:15:56;21.20;99.90
35970;DHT22;22448;51.298;6.430;2022-09-09T13:18:28;21.40;99.90
35970;DHT22;22448;51.298;6.430;2022-09-09T13:20:56;21.40;99.90
35970;DHT22;22448;51.298;6.430;2022-09-09T13:23:31;21.40;99.90
35970;DHT22;22448;51.298;6.430;2022-09-09T13:26:04;21.50;99.90
35970;DHT22;22448;51.298;6.430;2022-09-09T13:28:32;21.60;99.90
35970;DHT22;22448;51.298;6.430;2022-09-09T13:31:03;21.80;99.90
35970;DHT22;22448;51.298;6.430;2022-09-09T13:33:34;21.80;99.90
35970;DHT22;22448;51.298;6.430;2022-09-09T13:36:10;21.60;99.90
35970;DHT22;22448;51.298;6.430;2022-09-09T13:38:56;21.30;99.90
35970;DHT22;22448;51.298;6.430;2022-09-09T13:41:28;21.40;99.90
35970;DHT22;22448;51.298;6.430;2022-09-09T13:43:57;21.30;99.90
35970;DHT22;22448;51.298;6.430;2022-09-09T13:46:33;21.10;99.90
35970;DHT22;22448;51.298;6.430;2022-09-09T13:49:21;21.00;99.90
35970;DHT22;22448;51.298;6.430;2022-09-09T13:51:50;20.80;99.90
35970;DHT22;22448;51.298;6.430;2022-09-09T13:54:19;20.70;99.90
35970;DHT22;22448;51.298;6.430;2022-09-09T13:56:47;20.50;99.90
35970;DHT22;22448;51.298;6.430;2022-09-09T13:59:18;20.40;99.90
35970;DHT22;22448;51.298;6.430;2022-09-09T14:01:48;20.20;99.90
35970;DHT22;22448;51.298;6.430;2022-09-09T14:04:19;20.00;99.90
35970;DHT22;22448;51.298;6.430;2022-09-09T14:06:48;19.60;99.90
35970;DHT22;22448;51.298;6.430;2022-09-09T14:09:17;18.90;99.90
35970;DHT22;22448;51.298;6.430;2022-09-09T14:11:45;18.40;99.90
35970;DHT22;22448;51.298;6.430;2022-09-09T14:14:12;17.80;99.90
35970;DHT22;22448;51.298;6.430;2022-09-09T14:16:39;17.40;99.90
35970;DHT22;22448;51.298;6.430;2022-09-09T14:19:08;17.10;99.90
35970;DHT22;22448;51.298;6.430;2022-09-09T14:21:36;16.80;99.90
35970;DHT22;22448;51.298;6.430;2022-09-09T14:24:02;16.70;99.90
35970;DHT22;22448;51.298;6.430;2022-09-09T14:26:29;16.50;99.90
35970;DHT22;22448;51.298;6.430;2022-09-09T14:28:56;16.40;99.90
35970;DHT22;22448;51.298;6.430;2022-09-09T14:31:24;16.30;99.90
35970;DHT22;22448;51.298;6.430;2022-09-09T14:33:52;16.20;99.90
35970;DHT22;22448;51.298;6.430;2022-09-09T14:36:19;16.10;99.90
35970;DHT22;22448;51.298;6.430;2022-09-09T14:38:46;16.00;99.90
35970;DHT22;22448;51.298;6.430;2022-09-09T14:41:16;15.90;99.90
35970;DHT22;22448;51.298;6.430;2022-09-09T14:43:46;15.90;99.90
35970;DHT22;22448;51.298;6.430;2022-09-09T14:46:18;15.90;99.90
35970;DHT22;22448;51.298;6.430;2022-09-09T14:48:45;15.90;99.90
35970;DHT22;22448;51.298;6.430;2022-09-09T14:51:20;16.00;99.90
35970;DHT22;22448;51.298;6.430;2022-09-09T14:53:52;16.10;99.90
35970;DHT22;22448;51.298;6.430;2022-09-09T14:56:22;16.30;99.90
35970;DHT22;22448;51.298;6.430;2022-09-09T14:58:52;16.50;99.90
35970;DHT22;22448;51.298;6.430;2022-09-09T15:01:19;16.60;99.90
35970;DHT22;22448;51.298;6.430;2022-09-09T15:03:51;16.90;99.90
35970;DHT22;22448;51.298;6.430;2022-09-09T15:06:19;17.10;99.90
35970;DHT22;22448;51.298;6.430;2022-09-09T15:08:47;17.30;99.90
35970;DHT22;22448;51.298;6.430;2022-09-09T15:11:14;17.60;99.90
35970;DHT22;22448;51.298;6.430;2022-09-09T15:13:42;17.80;99.90
35970;DHT22;22448;51.298;6.430;2022-09-09T15:16:11;17.90;99.90
35970;DHT22;22448;51.298;6.430;2022-09-09T15:18:38;18.00;99.90
35970;DHT22;22448;51.298;6.430;2022-09-09T15:21:17;18.10;99.90
35970;DHT22;22448;51.298;6.430;2022-09-09T15:23:45;18.10;99.90
35970;DHT22;22448;51.298;6.430;2022-09-09T15:26:14;18.30;99.90
35970;DHT22;22448;51.298;6.430;2022-09-09T15:28:43;18.30;99.90
35970;DHT22;22448;51.298;6.430;2022-09-09T15:33:41;18.40;99.90
35970;DHT22;22448;51.298;6.430;2022-09-09T15:38:45;18.40;99.90
35970;DHT22;22448;51.298;6.430;2022-09-09T15:41:13;18.40;99.90
35970;DHT22;22448;51.298;6.430;2022-09-09T15:43:48;18.40;99.90
35970;DHT22;22448;51.298;6.430;2022-09-09T15:48:44;18.60;99.90
35970;DHT22;22448;51.298;6.430;2022-09-09T15:51:14;18.70;99.90
35970;DHT22;22448;51.298;6.430;2022-09-09T15:54:01;18.80;99.90
35970;DHT22;22448;51.298;6.430;2022-09-09T15:56:29;18.80;99.90
35970;DHT22;22448;51.298;6.430;2022-09-09T15:59:00;18.70;99.90
35970;DHT22;22448;51.298;6.430;2022-09-09T16:01:28;18.70;99.90
35970;DHT22;22448;51.298;6.430;2022-09-09T16:03:55;18.70;99.90
35970;DHT22;22448;51.298;6.430;2022-09-09T16:06:23;18.80;99.90
35970;DHT22;22448;51.298;6.430;2022-09-09T16:08:52;18.70;99.90
35970;DHT22;22448;51.298;6.430;2022-09-09T16:11:22;18.70;99.90
35970;DHT22;22448;51.298;6.430;2022-09-09T16:13:50;18.70;99.90
35970;DHT22;22448;51.298;6.430;2022-09-09T16:16:21;18.60;99.90
35970;DHT22;22448;51.298;6.430;2022-09-09T16:18:50;18.50;99.90
35970;DHT22;22448;51.298;6.430;2022-09-09T16:21:29;18.40;99.90
35970;DHT22;22448;51.298;6.430;2022-09-09T16:23:59;18.30;99.90
35970;DHT22;22448;51.298;6.430;2022-09-09T16:26:27;18.30;99.90
35970;DHT22;22448;51.298;6.430;2022-09-09T16:28:55;18.20;99.90
35970;DHT22;22448;51.298;6.430;2022-09-09T16:31:23;18.10;99.90
35970;DHT22;22448;51.298;6.430;2022-09-09T16:33:51;18.10;99.90
35970;DHT22;22448;51.298;6.430;2022-09-09T16:36:23;18.10;99.90
35970;DHT22;22448;51.298;6.430;2022-09-09T16:38:57;18.10;99.90
35970;DHT22;22448;51.298;6.430;2022-09-09T16:41:26;18.10;99.90
35970;DHT22;22448;51.298;6.430;2022-09-09T16:43:58;18.10;99.90
35970;DHT22;22448;51.298;6.430;2022-09-09T16:46:27;18.10;99.90
35970;DHT22;22448;51.298;6.430;2022-09-09T16:48:59;18.00;99.90
35970;DHT22;22448;51.298;6.430;2022-09-09T16:51:44;17.90;99.90
35970;DHT22;22448;51.298;6.430;2022-09-09T16:54:11;17.90;99.90
35970;DHT22;22448;51.298;6.430;2022-09-09T16:56:42;17.80;99.90
35970;DHT22;22448;51.298;6.430;2022-09-09T16:59:19;17.70;99.90
35970;DHT22;22448;51.298;6.430;2022-09-09T17:01:49;17.70;99.90
35970;DHT22;22448;51.298;6.430;2022-09-09T17:04:18;17.70;99.90
35970;DHT22;22448;51.298;6.430;2022-09-09T17:06:51;17.70;99.90
35970;DHT22;22448;51.298;6.430;2022-09-09T17:09:19;17.70;99.90
35970;DHT22;22448;51.298;6.430;2022-09-09T17:11:47;17.60;99.90
35970;DHT22;22448;51.298;6.430;2022-09-09T17:14:18;17.60;99.90
35970;DHT22;22448;51.298;6.430;2022-09-09T17:16:45;17.60;99.90
35970;DHT22;22448;51.298;6.430;2022-09-09T17:19:13;17.60;99.90
35970;DHT22;22448;51.298;6.430;2022-09-09T17:21:41;17.50;99.90
35970;DHT22;22448;51.298;6.430;2022-09-09T17:24:28;17.50;99.90
35970;DHT22;22448;51.298;6.430;2022-09-09T17:26:56;17.40;99.90
35970;DHT22;22448;51.298;6.430;2022-09-09T17:29:23;17.40;99.90
35970;DHT22;22448;51.298;6.430;2022-09-09T17:31:51;17.40;99.90
35970;DHT22;22448;51.298;6.430;2022-09-09T17:34:18;17.30;99.90
35970;DHT22;22448;51.298;6.430;2022-09-09T17:36:45;17.30;99.90
35970;DHT22;22448;51.298;6.430;2022-09-09T17:39:12;17.20;99.90
35970;DHT22;22448;51.298;6.430;2022-09-09T17:41:39;17.10;99.90
35970;DHT22;22448;51.298;6.430;2022-09-09T17:44:07;17.10;99.90
35970;DHT22;22448;51.298;6.430;2022-09-09T17:46:42;17.00;99.90
35970;DHT22;22448;51.298;6.430;2022-09-09T17:49:11;17.00;99.90
35970;DHT22;22448;51.298;6.430;2022-09-09T17:51:39;17.00;99.90
35970;DHT22;22448;51.298;6.430;2022-09-09T17:54:11;17.00;99.90
35970;DHT22;22448;51.298;6.430;2022-09-09T17:56:40;17.00;99.90
35970;DHT22;22448;51.298;6.430;2022-09-09T17:59:09;17.00;99.90